createdAt,value
2022-08-02T00:02:56.365Z,12.62
2022-08-02T00:05:58.936Z,12.62
2022-08-02T00:09:01.583Z,12.55
2022-08-02T00:12:04.542Z,12.58
2022-08-02T00:15:10.099Z,12.37
2022-08-02T00:18:18.310Z,12.08
2022-08-02T00:21:20.926Z,11.96
2022-08-02T00:24:30.877Z,11.93
2022-08-02T00:27:33.728Z,11.82
2022-08-02T00:30:37.612Z,11.80
2022-08-02T00:34:05.139Z,11.81
2022-08-02T00:37:02.563Z,11.63
2022-08-02T00:40:06.088Z,11.63
2022-08-02T00:43:10.499Z,11.71
2022-08-02T00:46:15.125Z,11.76
2022-08-02T00:49:17.676Z,11.89
2022-08-02T00:52:24.622Z,11.97
2022-08-02T00:55:31.457Z,12.03
2022-08-02T00:58:34.267Z,12.11
2022-08-02T01:01:57.339Z,12.18
2022-08-02T01:05:00.756Z,12.08
2022-08-02T01:08:03.828Z,11.93
2022-08-02T01:11:06.471Z,11.84
2022-08-02T01:14:11.189Z,11.85
2022-08-02T01:17:21.429Z,11.69
2022-08-02T01:20:50.527Z,11.50
2022-08-02T01:24:05.159Z,11.39
2022-08-02T01:27:21.260Z,11.41
2022-08-02T01:30:28.038Z,11.23
2022-08-02T01:33:36.433Z,11.20
2022-08-02T01:36:41.114Z,11.31
2022-08-02T01:39:46.682Z,11.44
2022-08-02T01:42:52.550Z,11.43
2022-08-02T01:45:57.820Z,11.22
2022-08-02T01:49:04.498Z,11.10
2022-08-02T01:52:26.127Z,11.10
2022-08-02T01:55:56.782Z,11.12
2022-08-02T01:58:56.903Z,11.12
2022-08-02T02:02:02.587Z,11.09
2022-08-02T02:05:07.255Z,11.04
2022-08-02T02:08:11.484Z,11.02
2022-08-02T02:12:09.832Z,10.96
2022-08-02T02:14:38.188Z,10.89
2022-08-02T02:18:11.422Z,10.84
2022-08-02T02:21:07.614Z,10.88
2022-08-02T02:24:11.673Z,11.10
2022-08-02T02:27:16.163Z,11.19
2022-08-02T02:30:18.915Z,11.19
2022-08-02T02:33:27.677Z,11.20
2022-08-02T02:36:35.171Z,11.30
2022-08-02T02:39:39.648Z,11.32
2022-08-02T02:42:43.353Z,11.31
2022-08-02T02:45:54.496Z,11.34
2022-08-02T02:48:58.622Z,11.34
2022-08-02T02:52:01.906Z,11.32
2022-08-02T02:55:05.149Z,11.24
2022-08-02T02:58:08.767Z,11.22
2022-08-02T03:01:55.651Z,11.14
2022-08-02T03:05:02.914Z,11.01
2022-08-02T03:08:06.264Z,10.98
2022-08-02T03:11:10.527Z,10.93
2022-08-02T03:14:13.651Z,11.04
2022-08-02T03:17:16.515Z,11.03
2022-08-02T03:20:22.640Z,11.06
2022-08-02T03:23:25.159Z,11.09
2022-08-02T03:26:27.673Z,11.10
2022-08-02T03:29:34.306Z,10.96
2022-08-02T03:32:38.735Z,10.87
2022-08-02T03:35:45.509Z,10.91
2022-08-02T03:38:48.861Z,11.02
2022-08-02T03:41:52.166Z,11.19
2022-08-02T03:44:56.219Z,11.25
2022-08-02T03:47:59.564Z,11.30
2022-08-02T03:51:03.964Z,11.13
2022-08-02T03:54:07.430Z,11.16
2022-08-02T03:57:11.377Z,11.36
2022-08-02T04:00:19.478Z,11.54
2022-08-02T04:03:22.103Z,11.68
2022-08-02T04:06:27.191Z,12.15
2022-08-02T04:09:31.132Z,12.91
2022-08-02T04:12:33.954Z,13.91
2022-08-02T04:15:37.454Z,14.28
2022-08-02T04:18:52.671Z,13.99
2022-08-02T04:21:59.022Z,15.00
2022-08-02T04:25:04.085Z,15.77
2022-08-02T04:28:16.733Z,16.56
2022-08-02T04:31:21.123Z,17.21
2022-08-02T04:34:23.773Z,18.23
2022-08-02T04:37:28.482Z,18.77
2022-08-02T04:40:31.070Z,19.14
2022-08-02T04:43:33.641Z,19.26
2022-08-02T04:46:37.141Z,19.79
2022-08-02T04:49:39.692Z,20.37
2022-08-02T04:52:45.895Z,20.93
2022-08-02T04:55:48.992Z,21.61
2022-08-02T04:58:51.544Z,21.93
2022-08-02T05:01:54.539Z,22.04
2022-08-02T05:04:57.033Z,21.92
2022-08-02T05:08:01.164Z,22.58
2022-08-02T05:11:03.689Z,23.02
2022-08-02T05:14:06.747Z,23.44
2022-08-02T05:17:09.273Z,23.96
2022-08-02T05:20:14.261Z,24.33
2022-08-02T05:23:18.144Z,24.39
2022-08-02T05:26:20.888Z,24.36
2022-08-02T05:29:23.934Z,24.34
2022-08-02T05:32:26.852Z,23.77
2022-08-02T05:35:29.411Z,23.27
2022-08-02T05:38:37.084Z,22.70
2022-08-02T05:41:40.104Z,22.42
2022-08-02T05:44:42.605Z,22.00
2022-08-02T05:47:45.642Z,21.25
2022-08-02T05:50:53.512Z,20.90
2022-08-02T05:54:08.688Z,21.21
2022-08-02T05:57:17.294Z,21.65
2022-08-02T06:00:21.205Z,21.88
2022-08-02T06:03:26.542Z,22.24
2022-08-02T06:06:30.781Z,22.68
2022-08-02T06:09:35.887Z,23.07
2022-08-02T06:12:46.666Z,23.32
2022-08-02T06:15:53.895Z,23.52
2022-08-02T06:18:56.995Z,23.48
2022-08-02T06:22:41.890Z,23.42
2022-08-02T06:25:50.145Z,23.10
2022-08-02T06:28:54.294Z,23.12
2022-08-02T06:31:57.616Z,23.02
2022-08-02T06:35:00.112Z,23.49
2022-08-02T06:38:03.696Z,23.83
2022-08-02T06:41:10.681Z,23.61
2022-08-02T06:47:39.377Z,23.48
2022-08-02T06:50:44.164Z,23.56
2022-08-02T06:53:47.220Z,23.75
2022-08-02T06:56:51.087Z,23.96
2022-08-02T06:59:53.675Z,24.13
2022-08-02T07:02:56.224Z,24.54
2022-08-02T07:05:58.738Z,25.04
2022-08-02T07:09:19.967Z,24.98
2022-08-02T07:12:24.617Z,25.10
2022-08-02T07:15:27.142Z,25.48
2022-08-02T07:18:29.850Z,25.60
2022-08-02T07:21:56.784Z,25.47
2022-08-02T07:24:56.162Z,25.44
2022-08-02T07:28:00.012Z,25.17
2022-08-02T07:31:03.844Z,25.22
2022-08-02T07:34:06.331Z,24.77
2022-08-02T07:37:09.835Z,24.51
2022-08-02T07:40:25.542Z,24.56
2022-08-02T07:43:29.479Z,25.19
2022-08-02T07:46:33.260Z,24.66
2022-08-02T07:49:35.830Z,24.78
2022-08-02T07:52:38.572Z,25.60
2022-08-02T07:55:41.103Z,26.30
2022-08-02T07:58:44.968Z,25.28
2022-08-02T08:01:49.271Z,24.91
2022-08-02T08:04:51.846Z,24.82
2022-08-02T08:07:54.322Z,25.12
2022-08-02T08:10:56.807Z,26.13
2022-08-02T08:14:00.633Z,26.62
2022-08-02T08:17:03.496Z,26.95
2022-08-02T08:20:07.026Z,27.20
2022-08-02T08:23:09.548Z,26.99
2022-08-02T08:26:15.648Z,26.95
2022-08-02T08:29:19.776Z,27.19
2022-08-02T08:32:22.562Z,27.19
2022-08-02T08:35:25.219Z,26.63
2022-08-02T08:38:28.525Z,26.57
2022-08-02T08:41:31.363Z,27.12
2022-08-02T08:44:35.315Z,26.36
2022-08-02T08:47:41.844Z,26.52
2022-08-02T08:50:48.550Z,27.35
2022-08-02T08:53:55.125Z,27.75
2022-08-02T08:56:58.618Z,27.94
2022-08-02T09:00:02.802Z,28.17
2022-08-02T09:03:06.324Z,27.91
2022-08-02T09:06:08.804Z,28.21
2022-08-02T09:09:11.290Z,27.84
2022-08-02T09:12:15.619Z,28.29
2022-08-02T09:15:25.762Z,28.89
2022-08-02T09:18:31.827Z,28.51
2022-08-02T09:21:38.888Z,28.92
2022-08-02T09:24:46.702Z,28.44
2022-08-02T09:27:49.403Z,28.03
2022-08-02T09:30:53.604Z,28.33
2022-08-02T09:33:57.826Z,28.30
2022-08-02T09:37:00.344Z,29.10
2022-08-02T09:40:05.648Z,28.12
2022-08-02T09:43:09.828Z,27.13
2022-08-02T09:46:15.564Z,27.30
2022-08-02T09:49:20.036Z,28.34
2022-08-02T09:52:37.193Z,28.59
2022-08-02T09:55:56.860Z,28.85
2022-08-02T09:58:59.391Z,29.15
2022-08-02T10:02:16.924Z,29.11
2022-08-02T10:05:22.210Z,29.12
2022-08-02T10:08:26.162Z,28.58
2022-08-02T10:11:29.572Z,28.83
2022-08-02T10:14:34.245Z,29.12
2022-08-02T10:17:38.909Z,28.36
2022-08-02T10:20:44.902Z,28.77
2022-08-02T10:23:50.747Z,29.18
2022-08-02T10:26:54.393Z,28.68
2022-08-02T10:30:00.143Z,29.22
2022-08-02T10:33:07.068Z,28.95
2022-08-02T10:36:11.439Z,28.84
2022-08-02T10:39:14.276Z,29.10
2022-08-02T10:42:44.571Z,28.65
2022-08-02T10:45:50.798Z,28.65
2022-08-02T10:49:37.412Z,28.58
2022-08-02T10:52:32.859Z,29.26
2022-08-02T10:55:46.195Z,29.06
2022-08-02T10:58:48.675Z,28.68
2022-08-02T11:01:51.848Z,29.11
2022-08-02T11:05:15.529Z,29.03
2022-08-02T11:08:22.193Z,28.84
2022-08-02T11:11:53.214Z,29.64
2022-08-02T11:14:59.093Z,29.63
2022-08-02T11:18:01.564Z,29.86
2022-08-02T11:21:24.712Z,30.11
2022-08-02T11:24:30.004Z,30.21
2022-08-02T11:27:32.567Z,30.11
2022-08-02T11:30:35.581Z,30.41
2022-08-02T11:33:38.059Z,30.37
2022-08-02T11:36:48.898Z,30.01
2022-08-02T11:39:51.640Z,29.82
2022-08-02T11:42:54.496Z,29.80
2022-08-02T11:45:57.316Z,29.54
2022-08-02T11:49:13.367Z,29.70
2022-08-02T11:52:17.258Z,29.45
2022-08-02T11:55:27.151Z,29.52
2022-08-02T11:58:29.648Z,28.33
2022-08-02T12:01:36.725Z,29.09
2022-08-02T12:04:53.887Z,28.55
2022-08-02T12:08:01.455Z,29.90
2022-08-02T12:11:04.395Z,30.64
2022-08-02T12:14:07.877Z,30.20
2022-08-02T12:17:28.831Z,30.56
2022-08-02T12:20:37.010Z,30.41
2022-08-02T12:23:59.940Z,30.11
2022-08-02T12:27:03.899Z,30.31
2022-08-02T12:30:09.539Z,30.24
2022-08-02T12:33:13.235Z,30.47
2022-08-02T12:36:17.288Z,30.65
2022-08-02T12:39:21.102Z,31.06
2022-08-02T12:42:23.580Z,30.75
2022-08-02T12:45:27.565Z,31.15
2022-08-02T12:48:56.811Z,31.32
2022-08-02T12:52:19.738Z,31.04
2022-08-02T12:55:59.789Z,30.28
2022-08-02T12:58:50.275Z,30.02
2022-08-02T13:01:53.038Z,29.51
2022-08-02T13:04:55.676Z,29.85
2022-08-02T13:08:00.299Z,30.59
2022-08-02T13:11:04.136Z,30.80
2022-08-02T13:14:06.631Z,30.06
2022-08-02T13:17:09.149Z,29.65
2022-08-02T13:20:14.485Z,29.57
2022-08-02T13:23:21.812Z,29.21
2022-08-02T13:26:31.233Z,29.93
2022-08-02T13:29:33.953Z,30.46
2022-08-02T13:32:36.564Z,30.38
2022-08-02T13:35:39.088Z,30.33
2022-08-02T13:38:41.563Z,30.38
2022-08-02T13:41:45.385Z,29.38
2022-08-02T13:44:47.889Z,29.90
2022-08-02T13:48:04.665Z,30.28
2022-08-02T13:51:11.966Z,30.72
2022-08-02T13:54:18.031Z,30.91
2022-08-02T13:57:21.931Z,30.92
2022-08-02T14:00:34.946Z,30.65
2022-08-02T14:04:06.135Z,30.96
2022-08-02T14:07:01.376Z,31.24
2022-08-02T14:10:04.320Z,31.05
2022-08-02T14:13:08.704Z,29.92
2022-08-02T14:16:11.943Z,29.97
2022-08-02T14:19:16.558Z,30.45
2022-08-02T14:22:19.888Z,30.65
2022-08-02T14:25:22.441Z,31.08
2022-08-02T14:28:26.720Z,30.85
2022-08-02T14:31:29.553Z,30.46
2022-08-02T14:34:32.123Z,30.28
2022-08-02T14:37:34.636Z,29.72
2022-08-02T14:40:37.328Z,29.07
2022-08-02T14:43:58.664Z,29.02
2022-08-02T14:47:01.286Z,29.14
2022-08-02T14:50:04.382Z,29.13
2022-08-02T14:53:07.001Z,28.54
2022-08-02T14:56:15.484Z,28.84
2022-08-02T14:59:19.301Z,29.39
2022-08-02T15:02:21.849Z,29.75
2022-08-02T15:05:24.343Z,29.93
2022-08-02T15:08:26.833Z,29.58
2022-08-02T15:11:29.636Z,29.63
2022-08-02T15:14:51.141Z,29.46
2022-08-02T15:17:53.716Z,28.82
2022-08-02T15:20:57.317Z,28.39
2022-08-02T15:24:00.614Z,28.36
2022-08-02T15:27:03.133Z,27.88
2022-08-02T15:30:08.931Z,27.90
2022-08-02T15:33:11.415Z,27.90
2022-08-02T15:36:13.949Z,28.26
2022-08-02T15:39:16.453Z,28.28
2022-08-02T15:42:19.318Z,28.00
2022-08-02T15:45:24.774Z,28.41
2022-08-02T15:48:27.267Z,28.43
2022-08-02T15:51:29.777Z,28.48
2022-08-02T15:54:32.297Z,28.42
2022-08-02T15:57:34.829Z,28.57
2022-08-02T16:00:40.253Z,28.76
2022-08-02T16:03:42.730Z,28.54
2022-08-02T16:06:45.491Z,28.14
2022-08-02T16:09:48.052Z,27.77
2022-08-02T16:12:50.685Z,27.45
2022-08-02T16:15:54.511Z,26.95
2022-08-02T16:18:57.418Z,26.92
2022-08-02T16:21:59.914Z,27.13
2022-08-02T16:25:02.565Z,27.27
2022-08-02T16:28:06.951Z,27.37
2022-08-02T16:31:11.893Z,27.31
2022-08-02T16:34:14.626Z,27.10
2022-08-02T16:37:17.127Z,27.03
2022-08-02T16:40:19.632Z,27.05
2022-08-02T16:43:22.372Z,26.89
2022-08-02T16:46:26.198Z,26.84
2022-08-02T16:50:04.042Z,26.95
2022-08-02T16:52:51.212Z,26.90
2022-08-02T16:55:54.278Z,26.86
2022-08-02T16:58:59.573Z,26.82
2022-08-02T17:02:15.357Z,26.68
2022-08-02T17:05:21.007Z,26.60
2022-08-02T17:08:23.750Z,26.46
2022-08-02T17:11:38.696Z,26.23
2022-08-02T17:14:55.684Z,26.09
2022-08-02T17:18:01.228Z,25.95
2022-08-02T17:21:04.791Z,25.93
2022-08-02T17:24:08.766Z,25.90
2022-08-02T17:27:11.874Z,25.80
2022-08-02T17:30:15.468Z,25.69
2022-08-02T17:33:19.378Z,25.52
2022-08-02T17:36:21.882Z,25.37
2022-08-02T17:39:25.130Z,25.23
2022-08-02T17:42:36.599Z,25.11
2022-08-02T17:49:20.370Z,24.89
2022-08-02T17:52:50.720Z,24.76
2022-08-02T17:55:51.043Z,24.58
2022-08-02T17:58:54.094Z,24.38
2022-08-02T18:01:58.011Z,24.11
2022-08-02T18:05:11.634Z,23.90
2022-08-02T18:08:14.664Z,23.71
2022-08-02T18:11:19.795Z,23.60
2022-08-02T18:14:46.187Z,23.46
2022-08-02T18:17:51.743Z,23.28
2022-08-02T18:21:16.045Z,23.09
2022-08-02T18:24:24.082Z,22.93
2022-08-02T18:27:26.777Z,22.77
2022-08-02T18:30:29.307Z,22.46
2022-08-02T18:33:58.318Z,22.15
2022-08-02T18:36:56.170Z,21.94
2022-08-02T18:39:58.649Z,21.87
2022-08-02T18:43:01.935Z,21.76
2022-08-02T18:46:15.433Z,21.64
2022-08-02T18:49:19.033Z,21.52
2022-08-02T18:52:30.923Z,21.42
2022-08-02T18:55:59.459Z,21.25
2022-08-02T18:58:57.366Z,21.09
2022-08-02T19:02:00.113Z,20.99
2022-08-02T19:05:02.701Z,20.91
2022-08-02T19:08:10.760Z,20.78
2022-08-02T19:11:13.501Z,20.62
2022-08-02T19:14:24.187Z,20.45
2022-08-02T19:17:54.310Z,20.14
2022-08-02T19:20:56.167Z,19.95
2022-08-02T19:24:02.167Z,19.93
2022-08-02T19:27:13.807Z,19.92
2022-08-02T19:30:18.215Z,19.89
2022-08-02T19:33:24.970Z,19.78
2022-08-02T19:36:43.478Z,19.72
2022-08-02T19:39:48.689Z,19.71
2022-08-02T19:44:25.378Z,19.71
2022-08-02T19:46:16.249Z,19.67
2022-08-02T19:52:42.225Z,19.47
2022-08-02T19:56:00.764Z,19.47
2022-08-02T19:59:13.048Z,19.45
2022-08-02T20:02:17.165Z,19.21
2022-08-02T20:05:26.587Z,19.09
2022-08-02T20:08:31.668Z,18.97
2022-08-02T20:11:40.084Z,18.88
2022-08-02T20:14:50.952Z,18.80
2022-08-02T20:17:54.025Z,18.79
2022-08-02T20:20:56.656Z,18.91
2022-08-02T20:23:59.613Z,18.97
2022-08-02T20:27:04.449Z,19.05
2022-08-02T20:30:08.138Z,18.98
2022-08-02T20:33:22.124Z,18.88
2022-08-02T20:36:25.208Z,18.77
2022-08-02T20:39:42.550Z,18.77
2022-08-02T20:42:48.485Z,18.61
2022-08-02T20:45:51.527Z,18.57
2022-08-02T20:48:55.940Z,18.60
2022-08-02T20:52:02.435Z,18.56
2022-08-02T20:55:05.471Z,18.44
2022-08-02T21:01:36.710Z,18.28
2022-08-02T21:04:39.787Z,18.26
2022-08-02T21:07:42.729Z,18.28
2022-08-02T21:10:52.349Z,18.23
2022-08-02T21:14:08.211Z,18.07
2022-08-02T21:17:11.655Z,18.00
2022-08-02T21:20:27.526Z,17.76
2022-08-02T21:23:36.568Z,17.64
2022-08-02T21:26:39.284Z,17.60
2022-08-02T21:29:44.297Z,17.56
2022-08-02T21:32:50.500Z,17.60
2022-08-02T21:35:54.381Z,17.56
2022-08-02T21:38:57.899Z,17.55
2022-08-02T21:42:00.727Z,17.51
2022-08-02T21:45:16.869Z,17.48
2022-08-02T21:48:20.080Z,17.44
2022-08-02T21:51:22.577Z,17.50
2022-08-02T21:54:25.735Z,17.46
2022-08-02T21:57:34.704Z,17.44
2022-08-02T22:00:38.926Z,17.49
2022-08-02T22:03:43.593Z,17.50
2022-08-02T22:06:58.783Z,17.53
2022-08-02T22:10:01.378Z,17.57
2022-08-02T22:13:05.240Z,17.50
2022-08-02T22:16:18.648Z,17.49
2022-08-02T22:19:21.197Z,17.43
2022-08-02T22:22:28.409Z,17.48
2022-08-02T22:25:37.420Z,17.53
2022-08-02T22:28:50.351Z,17.43
2022-08-02T22:31:56.766Z,17.46
2022-08-02T22:34:58.338Z,17.47
2022-08-02T22:38:15.002Z,17.52
2022-08-02T22:41:22.346Z,17.55
2022-08-02T22:44:24.877Z,17.57
2022-08-02T22:47:28.687Z,17.58
2022-08-02T22:50:41.212Z,17.61
2022-08-02T22:53:44.578Z,17.69
2022-08-02T22:56:47.919Z,17.75
2022-08-02T22:58:48.942Z,25.01
2022-08-02T22:58:53.232Z,19.62
2022-08-02T22:58:56.731Z,18.34
2022-08-02T22:59:50.409Z,17.75
2022-08-02T23:02:54.411Z,17.71
2022-08-02T23:05:57.127Z,17.65
2022-08-02T23:08:59.614Z,17.63
2022-08-02T23:12:02.163Z,17.67
2022-08-02T23:15:05.450Z,17.72
2022-08-02T23:18:27.158Z,17.82
2022-08-02T23:21:45.745Z,17.78
2022-08-02T23:24:55.176Z,17.70
2022-08-02T23:27:57.768Z,17.65
2022-08-02T23:31:00.361Z,17.63
2022-08-02T23:34:05.755Z,17.68
2022-08-02T23:37:08.598Z,17.73
2022-08-02T23:40:11.636Z,17.81
2022-08-02T23:43:15.359Z,17.88
2022-08-02T23:46:18.033Z,17.95
2022-08-02T23:49:23.175Z,18.01
2022-08-02T23:52:25.836Z,18.01
2022-08-02T23:55:28.352Z,18.03
2022-08-02T23:58:33.075Z,18.03
